createdAt,value
2023-05-04T00:00:47.087Z,5.50
2023-05-04T00:01:49.269Z,4.40
2023-05-04T00:02:51.448Z,5.30
2023-05-04T00:03:53.778Z,5.40
2023-05-04T00:04:56.566Z,4.70
2023-05-04T00:05:59.277Z,5.00
2023-05-04T00:07:01.723Z,2.70
2023-05-04T00:08:05.113Z,4.60
2023-05-04T00:09:11.191Z,3.80
2023-05-04T00:10:14.134Z,5.50
2023-05-04T00:11:16.422Z,6.00
2023-05-04T00:12:18.533Z,5.80
2023-05-04T00:13:21.041Z,5.50
2023-05-04T00:14:23.141Z,6.00
2023-05-04T00:15:24.976Z,5.56
2023-05-04T00:16:27.159Z,5.00
2023-05-04T00:17:29.403Z,5.00
2023-05-04T00:18:31.940Z,3.20
2023-05-04T00:19:35.022Z,4.50
2023-05-04T00:20:38.585Z,4.80
2023-05-04T00:21:40.831Z,5.00
2023-05-04T00:22:43.029Z,4.40
2023-05-04T00:23:45.153Z,6.50
2023-05-04T00:24:47.229Z,5.30
2023-05-04T00:25:49.540Z,5.30
2023-05-04T00:26:51.765Z,4.90
2023-05-04T00:27:54.161Z,5.00
2023-05-04T00:28:56.810Z,5.82
2023-05-04T00:29:59.010Z,6.00
2023-05-04T00:31:01.445Z,4.00
2023-05-04T00:32:05.817Z,5.30
2023-05-04T00:33:08.177Z,5.10
2023-05-04T00:34:10.631Z,4.90
2023-05-04T00:35:12.838Z,4.50
2023-05-04T00:36:14.937Z,5.60
2023-05-04T00:37:16.927Z,5.44
2023-05-04T00:38:19.631Z,5.00
2023-05-04T00:39:21.736Z,4.50
2023-05-04T00:40:25.489Z,7.20
2023-05-04T00:41:27.706Z,5.30
2023-05-04T00:42:29.759Z,5.80
2023-05-04T00:43:31.835Z,6.10
2023-05-04T00:44:33.977Z,5.10
2023-05-04T00:45:37.972Z,4.50
2023-05-04T00:46:41.960Z,4.60
2023-05-04T00:47:44.596Z,4.70
2023-05-04T00:48:48.916Z,5.80
2023-05-04T00:49:51.985Z,5.40
2023-05-04T00:50:55.333Z,5.10
2023-05-04T00:51:57.591Z,5.60
2023-05-04T00:53:01.314Z,5.00
2023-05-04T00:54:03.548Z,5.40
2023-05-04T00:55:09.496Z,6.70
2023-05-04T00:56:11.872Z,5.20
2023-05-04T00:57:15.859Z,5.20
2023-05-04T00:58:18.455Z,5.90
2023-05-04T00:59:20.754Z,5.40
2023-05-04T01:00:22.873Z,6.00
2023-05-04T01:01:26.634Z,5.80
2023-05-04T01:02:29.104Z,6.70
2023-05-04T01:03:32.288Z,5.70
2023-05-04T01:04:34.425Z,1.50
2023-05-04T01:05:40.378Z,5.90
2023-05-04T01:09:36.536Z,6.10
2023-05-04T01:10:48.695Z,5.90
2023-05-04T01:11:59.909Z,5.70
2023-05-04T01:13:08.414Z,4.00
2023-05-04T01:14:10.599Z,4.90
2023-05-04T01:15:13.594Z,5.60
2023-05-04T01:16:16.999Z,0.40
2023-05-04T01:17:20.013Z,5.10
2023-05-04T01:18:22.089Z,5.10
2023-05-04T01:19:24.249Z,4.40
2023-05-04T01:20:27.457Z,4.70
2023-05-04T01:21:31.429Z,6.40
2023-05-04T01:22:33.505Z,2.80
2023-05-04T01:23:35.540Z,5.10
2023-05-04T01:24:37.830Z,5.50
2023-05-04T01:25:46.881Z,5.90
2023-05-04T01:26:53.414Z,5.60
2023-05-04T01:27:58.467Z,4.70
2023-05-04T01:29:10.309Z,5.40
2023-05-04T01:30:16.670Z,5.50
2023-05-04T01:31:22.335Z,4.80
2023-05-04T01:32:27.660Z,5.40
2023-05-04T01:33:29.932Z,6.60
2023-05-04T01:34:34.959Z,7.00
2023-05-04T01:35:37.063Z,5.00
2023-05-04T01:36:41.762Z,5.20
2023-05-04T01:37:44.777Z,5.80
2023-05-04T01:38:51.197Z,5.40
2023-05-04T01:39:53.521Z,5.90
2023-05-04T01:40:55.952Z,6.00
2023-05-04T01:41:58.170Z,6.80
2023-05-04T01:43:00.349Z,4.60
2023-05-04T01:44:04.948Z,5.90
2023-05-04T01:45:10.807Z,5.80
2023-05-04T01:46:13.779Z,5.70
2023-05-04T01:47:16.135Z,6.40
2023-05-04T01:48:18.323Z,5.60
2023-05-04T01:49:20.321Z,5.10
2023-05-04T01:50:23.768Z,2.80
2023-05-04T01:51:25.865Z,7.60
2023-05-04T01:52:27.811Z,7.00
2023-05-04T01:53:29.969Z,6.60
2023-05-04T01:54:32.262Z,6.00
2023-05-04T01:55:34.399Z,6.40
2023-05-04T01:56:36.876Z,8.20
2023-05-04T01:57:39.571Z,6.90
2023-05-04T01:58:44.908Z,5.70
2023-05-04T01:59:47.286Z,7.70
2023-05-04T02:00:50.863Z,7.40
2023-05-04T02:01:53.158Z,6.00
2023-05-04T02:02:55.798Z,7.40
2023-05-04T02:03:58.578Z,6.36
2023-05-04T02:05:01.083Z,6.82
2023-05-04T02:06:05.375Z,7.40
2023-05-04T02:07:08.052Z,5.90
2023-05-04T02:08:10.213Z,7.60
2023-05-04T02:09:12.226Z,7.10
2023-05-04T02:10:14.621Z,6.90
2023-05-04T02:11:16.592Z,6.56
2023-05-04T02:12:20.636Z,5.80
2023-05-04T02:13:22.812Z,7.90
2023-05-04T02:14:25.335Z,8.30
2023-05-04T02:15:27.585Z,7.40
2023-05-04T02:16:31.063Z,8.20
2023-05-04T02:17:33.681Z,5.91
2023-05-04T02:18:35.982Z,5.30
2023-05-04T02:19:38.042Z,6.20
2023-05-04T02:20:42.468Z,6.20
2023-05-04T02:21:45.623Z,8.70
2023-05-04T02:22:47.929Z,6.20
2023-05-04T02:23:50.216Z,8.60
2023-05-04T02:24:52.411Z,6.80
2023-05-04T02:25:54.650Z,6.70
2023-05-04T02:26:57.126Z,8.90
2023-05-04T02:27:59.329Z,5.30
2023-05-04T02:29:01.470Z,6.10
2023-05-04T02:30:05.564Z,6.30
2023-05-04T02:31:08.195Z,8.50
2023-05-04T02:32:10.893Z,7.09
2023-05-04T02:33:13.080Z,6.20
2023-05-04T02:34:17.096Z,9.50
2023-05-04T02:35:21.391Z,8.90
2023-05-04T02:36:23.963Z,8.60
2023-05-04T02:37:26.185Z,8.30
2023-05-04T02:38:28.321Z,7.90
2023-05-04T02:39:30.993Z,8.70
2023-05-04T02:40:34.123Z,9.00
2023-05-04T02:41:36.595Z,9.10
2023-05-04T02:42:38.856Z,9.40
2023-05-04T02:43:42.900Z,8.50
2023-05-04T02:44:45.012Z,7.80
2023-05-04T02:45:47.767Z,11.30
2023-05-04T02:46:52.024Z,10.90
2023-05-04T02:47:54.267Z,9.50
2023-05-04T02:48:56.787Z,9.20
2023-05-04T02:49:59.149Z,8.60
2023-05-04T02:51:02.689Z,8.70
2023-05-04T02:52:05.772Z,9.40
2023-05-04T02:53:07.883Z,10.70
2023-05-04T02:54:09.989Z,12.30
2023-05-04T02:55:12.364Z,9.30
2023-05-04T02:56:15.010Z,9.60
2023-05-04T02:57:17.092Z,8.70
2023-05-04T02:58:19.355Z,7.80
2023-05-04T02:59:21.572Z,9.20
2023-05-04T03:00:25.297Z,9.40
2023-05-04T03:01:27.620Z,9.80
2023-05-04T03:02:30.345Z,9.55
2023-05-04T03:03:32.520Z,8.90
2023-05-04T03:04:35.392Z,9.40
2023-05-04T03:05:37.825Z,9.80
2023-05-04T03:06:40.272Z,8.80
2023-05-04T03:07:42.749Z,9.00
2023-05-04T03:08:44.944Z,8.50
2023-05-04T03:09:48.055Z,6.80
2023-05-04T03:10:51.169Z,9.70
2023-05-04T03:11:53.151Z,9.80
2023-05-04T03:12:55.446Z,10.70
2023-05-04T03:13:57.894Z,7.50
2023-05-04T03:15:08.836Z,9.80
2023-05-04T03:16:11.408Z,10.10
2023-05-04T03:17:15.621Z,9.80
2023-05-04T03:18:17.733Z,11.20
2023-05-04T03:19:21.469Z,10.10
2023-05-04T03:20:25.428Z,11.80
2023-05-04T03:21:27.779Z,9.90
2023-05-04T03:22:29.950Z,9.00
2023-05-04T03:23:31.972Z,10.80
2023-05-04T03:24:33.950Z,9.33
2023-05-04T03:25:36.164Z,10.80
2023-05-04T03:26:40.133Z,11.00
2023-05-04T03:27:43.778Z,11.36
2023-05-04T03:28:46.127Z,9.60
2023-05-04T03:29:49.206Z,9.00
2023-05-04T03:30:51.884Z,10.91
2023-05-04T03:31:54.683Z,9.80
2023-05-04T03:32:57.491Z,10.30
2023-05-04T03:34:00.357Z,8.82
2023-05-04T03:35:09.016Z,10.30
2023-05-04T03:36:11.824Z,9.80
2023-05-04T03:37:14.794Z,9.90
2023-05-04T03:38:16.888Z,12.00
2023-05-04T03:39:18.990Z,9.20
2023-05-04T03:40:25.179Z,10.50
2023-05-04T03:41:28.272Z,8.80
2023-05-04T03:42:31.558Z,11.80
2023-05-04T03:43:35.515Z,12.30
2023-05-04T03:44:37.539Z,10.70
2023-05-04T03:45:39.888Z,11.80
2023-05-04T03:46:42.500Z,10.55
2023-05-04T03:47:45.969Z,6.80
2023-05-04T03:48:48.730Z,10.27
2023-05-04T03:49:51.227Z,10.20
2023-05-04T03:50:53.307Z,10.40
2023-05-04T03:51:55.434Z,11.60
2023-05-04T03:52:58.188Z,11.20
2023-05-04T03:54:01.968Z,9.50
2023-05-04T03:55:06.620Z,10.80
2023-05-04T03:56:09.815Z,9.60
2023-05-04T03:57:11.724Z,9.70
2023-05-04T03:58:14.460Z,7.70
2023-05-04T03:59:16.791Z,11.00
2023-05-04T04:00:19.979Z,8.20
2023-05-04T04:01:24.007Z,13.30
2023-05-04T04:02:26.256Z,11.89
2023-05-04T04:03:29.689Z,9.50
2023-05-04T04:04:32.287Z,11.40
2023-05-04T04:05:34.367Z,10.80
2023-05-04T04:06:37.566Z,12.20
2023-05-04T04:07:42.706Z,9.40
2023-05-04T04:08:45.048Z,11.00
2023-05-04T04:09:47.143Z,9.20
2023-05-04T04:10:49.666Z,12.10
2023-05-04T04:11:51.858Z,9.70
2023-05-04T04:12:54.242Z,12.10
2023-05-04T04:13:56.399Z,13.50
2023-05-04T04:14:58.791Z,10.60
2023-05-04T04:16:00.997Z,11.30
2023-05-04T04:17:03.518Z,9.90
2023-05-04T04:18:05.976Z,12.80
2023-05-04T04:19:08.857Z,11.60
2023-05-04T04:20:13.306Z,12.50
2023-05-04T04:21:15.490Z,8.50
2023-05-04T04:22:17.674Z,12.60
2023-05-04T04:23:20.588Z,12.00
2023-05-04T04:24:22.948Z,12.90
2023-05-04T04:25:25.163Z,11.20
2023-05-04T04:26:28.330Z,10.30
2023-05-04T04:27:30.380Z,12.30
2023-05-04T04:28:34.473Z,11.10
2023-05-04T04:29:36.803Z,11.30
2023-05-04T04:30:38.989Z,12.80
2023-05-04T04:31:41.261Z,11.80
2023-05-04T04:32:43.769Z,11.00
2023-05-04T04:33:46.089Z,10.60
2023-05-04T04:34:48.333Z,13.00
2023-05-04T04:35:50.426Z,12.50
2023-05-04T04:36:52.552Z,11.50
2023-05-04T04:37:54.684Z,12.22
2023-05-04T04:38:56.969Z,12.80
2023-05-04T04:39:59.253Z,11.90
2023-05-04T04:41:01.629Z,11.40
2023-05-04T04:42:03.757Z,12.50
2023-05-04T04:43:05.898Z,10.70
2023-05-04T04:44:08.040Z,11.40
2023-05-04T04:45:13.408Z,12.20
2023-05-04T04:46:15.475Z,4.60
2023-05-04T04:47:17.690Z,10.20
2023-05-04T04:48:19.901Z,12.30
2023-05-04T04:49:22.040Z,10.50
2023-05-04T04:50:24.191Z,12.80
2023-05-04T04:51:26.333Z,12.80
2023-05-04T04:52:28.534Z,12.90
2023-05-04T04:53:30.801Z,12.10
2023-05-04T04:54:35.865Z,10.30
2023-05-04T04:55:38.302Z,10.30
2023-05-04T04:56:42.757Z,9.80
2023-05-04T04:57:44.947Z,9.40
2023-05-04T04:58:47.593Z,11.50
2023-05-04T04:59:49.701Z,13.00
2023-05-04T05:00:53.135Z,13.80
2023-05-04T05:01:55.533Z,11.90
2023-05-04T05:02:57.676Z,12.40
2023-05-04T05:03:59.851Z,12.10
2023-05-04T05:05:02.058Z,11.50
2023-05-04T05:06:05.466Z,10.80
2023-05-04T05:07:07.386Z,10.90
2023-05-04T05:08:09.417Z,12.90
2023-05-04T05:09:11.527Z,13.70
2023-05-04T05:10:14.506Z,12.60
2023-05-04T05:11:17.288Z,11.50
2023-05-04T05:12:19.321Z,10.60
2023-05-04T05:13:21.656Z,9.40
2023-05-04T05:14:24.175Z,11.70
2023-05-04T05:15:26.197Z,10.70
2023-05-04T05:16:28.658Z,8.80
2023-05-04T05:17:31.214Z,11.40
2023-05-04T05:18:34.912Z,11.00
2023-05-04T05:19:37.055Z,10.70
2023-05-04T05:20:39.997Z,12.00
2023-05-04T05:21:42.138Z,13.00
2023-05-04T05:22:44.376Z,10.40
2023-05-04T05:23:46.742Z,10.10
2023-05-04T05:24:48.866Z,10.70
2023-05-04T05:25:51.171Z,8.80
2023-05-04T05:26:53.770Z,10.80
2023-05-04T05:27:55.937Z,12.90
2023-05-04T05:28:58.145Z,10.30
2023-05-04T05:30:01.555Z,12.40
2023-05-04T05:31:04.169Z,9.60
2023-05-04T05:32:08.200Z,10.30
2023-05-04T05:33:10.519Z,9.50
2023-05-04T05:34:13.553Z,9.70
2023-05-04T05:35:15.577Z,8.60
2023-05-04T05:36:17.962Z,11.30
2023-05-04T05:37:20.147Z,12.30
2023-05-04T05:38:22.311Z,10.70
2023-05-04T05:39:24.763Z,12.10
2023-05-04T05:40:28.089Z,10.50
2023-05-04T05:41:30.742Z,10.80
2023-05-04T05:42:33.420Z,10.80
2023-05-04T05:43:35.442Z,10.80
2023-05-04T05:44:37.742Z,12.00
2023-05-04T05:45:39.722Z,11.90
2023-05-04T05:46:44.256Z,11.40
2023-05-04T05:47:46.454Z,12.30
2023-05-04T05:48:49.472Z,11.30
2023-05-04T05:49:51.577Z,11.20
2023-05-04T05:50:54.239Z,11.60
2023-05-04T05:51:56.271Z,10.90
2023-05-04T05:52:58.370Z,12.40
2023-05-04T05:54:00.844Z,12.40
2023-05-04T05:55:03.191Z,10.70
2023-05-04T05:56:07.372Z,11.80
2023-05-04T05:57:09.836Z,10.90
2023-05-04T05:58:11.994Z,10.90
2023-05-04T05:59:15.346Z,12.80
2023-05-04T06:00:20.963Z,12.90
2023-05-04T06:01:23.231Z,12.40
2023-05-04T06:02:25.497Z,13.00
2023-05-04T06:03:28.368Z,15.27
2023-05-04T06:04:30.853Z,13.10
2023-05-04T06:05:33.906Z,13.30
2023-05-04T06:06:36.128Z,14.50
2023-05-04T06:07:38.387Z,12.70
2023-05-04T06:08:40.382Z,12.70
2023-05-04T06:09:42.521Z,11.20
2023-05-04T06:10:45.762Z,13.00
2023-05-04T06:11:48.098Z,13.70
2023-05-04T06:17:12.948Z,12.60
2023-05-04T06:18:17.004Z,10.30
2023-05-04T06:19:19.252Z,13.30
2023-05-04T06:20:21.843Z,14.82
2023-05-04T06:21:23.922Z,15.30
2023-05-04T06:22:26.199Z,14.30
2023-05-04T06:23:28.323Z,12.50
2023-05-04T06:24:31.417Z,13.10
2023-05-04T06:25:33.430Z,12.70
2023-05-04T06:26:35.988Z,13.00
2023-05-04T06:27:38.231Z,13.60
2023-05-04T06:28:40.365Z,9.00
2023-05-04T06:29:42.707Z,30.10
2023-05-04T06:30:45.267Z,13.20
2023-05-04T06:31:48.367Z,12.20
2023-05-04T06:32:51.580Z,14.50
2023-05-04T06:33:54.147Z,13.00
2023-05-04T06:34:56.462Z,12.00
2023-05-04T06:35:58.743Z,11.70
2023-05-04T06:37:01.135Z,10.40
2023-05-04T06:38:03.495Z,11.70
2023-05-04T06:39:05.559Z,13.70
2023-05-04T06:40:12.460Z,13.64
2023-05-04T06:41:14.902Z,11.30
2023-05-04T06:42:17.410Z,12.80
2023-05-04T06:43:21.649Z,13.00
2023-05-04T06:44:23.990Z,8.50
2023-05-04T06:45:26.259Z,13.80
2023-05-04T06:46:28.820Z,13.10
2023-05-04T06:47:30.849Z,10.70
2023-05-04T06:48:33.022Z,13.90
2023-05-04T06:49:35.135Z,12.90
2023-05-04T06:50:39.002Z,13.30
2023-05-04T06:51:41.371Z,14.60
2023-05-04T06:52:44.313Z,14.80
2023-05-04T06:53:47.040Z,13.70
2023-05-04T06:54:49.490Z,12.00
2023-05-04T06:55:51.501Z,14.20
2023-05-04T06:56:53.909Z,13.50
2023-05-04T06:57:55.871Z,10.78
2023-05-04T06:58:58.373Z,13.90
2023-05-04T07:00:00.644Z,11.50
2023-05-04T07:01:03.001Z,16.00
2023-05-04T07:02:07.279Z,14.20
2023-05-04T07:03:09.384Z,10.70
2023-05-04T07:04:12.193Z,13.70
2023-05-04T07:05:14.279Z,12.90
2023-05-04T07:06:16.882Z,11.70
2023-05-04T07:07:19.039Z,11.80
2023-05-04T07:08:21.265Z,7.60
2023-05-04T07:09:23.487Z,13.30
2023-05-04T07:10:25.730Z,13.70
2023-05-04T07:11:27.982Z,9.80
2023-05-04T07:12:30.903Z,15.45
2023-05-04T07:13:33.222Z,12.80
2023-05-04T07:14:35.364Z,15.20
2023-05-04T07:15:37.489Z,13.50
2023-05-04T07:16:40.123Z,12.00
2023-05-04T07:17:42.801Z,12.10
2023-05-04T07:18:45.056Z,13.00
2023-05-04T07:19:47.527Z,12.90
2023-05-04T07:20:49.674Z,13.80
2023-05-04T07:21:53.619Z,12.60
2023-05-04T07:22:56.044Z,13.40
2023-05-04T07:24:02.776Z,12.10
2023-05-04T07:25:08.363Z,12.20
2023-05-04T07:26:11.864Z,11.10
2023-05-04T07:27:14.077Z,11.30
2023-05-04T07:28:16.124Z,13.70
2023-05-04T07:29:18.339Z,13.80
2023-05-04T07:30:20.884Z,13.60
2023-05-04T07:31:23.397Z,10.90
2023-05-04T07:32:25.958Z,12.10
2023-05-04T07:33:28.366Z,11.00
2023-05-04T07:34:41.876Z,12.30
2023-05-04T07:35:34.702Z,11.40
2023-05-04T07:36:36.803Z,13.50
2023-05-04T07:37:38.767Z,12.00
2023-05-04T07:38:41.065Z,12.40
2023-05-04T07:40:53.994Z,12.40
2023-05-04T07:41:56.178Z,12.20
2023-05-04T07:42:58.414Z,12.90
2023-05-04T07:44:00.992Z,13.18
2023-05-04T07:45:06.581Z,11.70
2023-05-04T07:46:09.184Z,10.50
2023-05-04T07:47:12.279Z,10.70
2023-05-04T07:48:14.355Z,15.00
2023-05-04T07:49:16.775Z,11.30
2023-05-04T07:50:22.065Z,14.70
2023-05-04T07:51:24.288Z,12.00
2023-05-04T07:52:26.523Z,11.30
2023-05-04T07:53:28.689Z,12.30
2023-05-04T07:54:30.826Z,3.60
2023-05-04T07:55:34.040Z,13.40
2023-05-04T07:56:38.066Z,12.20
2023-05-04T07:57:40.186Z,12.40
2023-05-04T07:58:42.227Z,4.70
2023-05-04T07:59:44.536Z,14.30
2023-05-04T08:00:48.630Z,12.50
2023-05-04T08:01:51.161Z,12.09
2023-05-04T08:02:53.589Z,11.70
2023-05-04T08:03:55.740Z,12.90
2023-05-04T08:04:57.981Z,13.80
2023-05-04T08:05:59.961Z,12.40
2023-05-04T08:07:02.017Z,14.40
2023-05-04T08:08:07.915Z,12.60
2023-05-04T08:09:10.201Z,12.00
2023-05-04T08:10:12.553Z,12.10
2023-05-04T08:11:20.652Z,10.40
2023-05-04T08:12:19.211Z,12.30
2023-05-04T08:13:21.466Z,10.30
2023-05-04T08:14:23.696Z,12.80
2023-05-04T08:15:26.130Z,13.20
2023-05-04T08:16:28.759Z,12.40
2023-05-04T08:17:30.969Z,13.80
2023-05-04T08:18:33.272Z,11.60
2023-05-04T08:19:35.389Z,11.60
2023-05-04T08:20:37.670Z,12.10
2023-05-04T08:21:39.705Z,10.50
2023-05-04T08:22:41.816Z,11.20
2023-05-04T08:23:44.012Z,10.80
2023-05-04T08:24:46.206Z,9.90
2023-05-04T08:25:48.658Z,9.30
2023-05-04T08:27:00.040Z,9.10
2023-05-04T08:27:55.348Z,10.30
2023-05-04T08:29:06.937Z,11.30
2023-05-04T08:30:14.235Z,8.60
2023-05-04T08:31:16.728Z,10.50
2023-05-04T08:32:19.053Z,8.80
2023-05-04T08:33:21.404Z,10.40
2023-05-04T08:34:24.193Z,10.27
2023-05-04T08:35:26.241Z,9.60
2023-05-04T08:36:29.958Z,8.70
2023-05-04T08:37:32.211Z,8.70
2023-05-04T08:38:34.414Z,8.90
2023-05-04T08:39:36.337Z,7.90
2023-05-04T08:40:40.956Z,9.20
2023-05-04T08:41:43.187Z,10.50
2023-05-04T08:42:45.420Z,9.70
2023-05-04T08:43:47.797Z,9.40
2023-05-04T08:44:50.130Z,10.90
2023-05-04T08:45:52.412Z,9.80
2023-05-04T08:46:54.995Z,8.50
2023-05-04T08:47:57.348Z,9.00
2023-05-04T08:48:59.928Z,8.30
2023-05-04T08:50:05.229Z,8.80
2023-05-04T08:51:07.529Z,9.60
2023-05-04T08:52:09.788Z,9.90
2023-05-04T08:53:15.137Z,9.90
2023-05-04T08:54:17.466Z,7.90
2023-05-04T08:55:22.788Z,7.90
2023-05-04T08:56:25.317Z,10.70
2023-05-04T08:57:27.555Z,8.80
2023-05-04T08:58:29.860Z,10.20
2023-05-04T08:59:32.017Z,11.70
2023-05-04T09:00:34.182Z,9.60
2023-05-04T09:01:38.452Z,9.40
2023-05-04T09:02:40.799Z,10.90
2023-05-04T09:03:44.341Z,10.80
2023-05-04T09:04:46.701Z,10.00
2023-05-04T09:05:49.794Z,10.80
2023-05-04T09:06:52.210Z,11.10
2023-05-04T09:07:54.343Z,11.50
2023-05-04T09:08:56.472Z,10.60
2023-05-04T09:09:58.813Z,6.90
2023-05-04T09:11:00.880Z,8.70
2023-05-04T09:12:05.906Z,10.20
2023-05-04T09:13:08.598Z,10.70
2023-05-04T09:14:11.873Z,9.90
2023-05-04T09:16:44.716Z,11.00
2023-05-04T09:18:02.454Z,10.60
2023-05-04T09:19:07.365Z,9.10
2023-05-04T09:20:14.748Z,8.90
2023-05-04T09:21:17.040Z,11.20
2023-05-04T09:22:19.167Z,9.70
2023-05-04T09:23:21.929Z,10.70
2023-05-04T09:25:51.590Z,11.20
2023-05-04T09:26:55.393Z,9.50
2023-05-04T09:27:57.545Z,8.70
2023-05-04T09:29:12.490Z,11.10
2023-05-04T09:30:14.847Z,9.50
2023-05-04T09:31:17.023Z,10.70
2023-05-04T09:32:20.332Z,12.40
2023-05-04T09:33:25.906Z,8.10
2023-05-04T09:34:29.319Z,11.40
2023-05-04T09:35:33.782Z,10.80
2023-05-04T09:36:36.194Z,9.70
2023-05-04T09:37:44.784Z,11.40
2023-05-04T09:38:46.977Z,9.10
2023-05-04T09:39:53.055Z,8.90
2023-05-04T09:40:55.409Z,11.70
2023-05-04T09:41:57.443Z,10.70
2023-05-04T09:42:59.650Z,7.20
2023-05-04T09:44:02.440Z,10.00
2023-05-04T09:45:07.462Z,11.10
2023-05-04T09:47:35.409Z,11.20
2023-05-04T09:48:37.765Z,13.30
2023-05-04T09:49:39.882Z,11.90
2023-05-04T09:50:47.328Z,12.20
2023-05-04T09:51:49.381Z,12.20
2023-05-04T09:52:51.444Z,12.00
2023-05-04T09:53:53.694Z,11.00
2023-05-04T09:54:55.595Z,10.90
2023-05-04T09:56:08.280Z,11.20
2023-05-04T09:57:14.646Z,12.90
2023-05-04T09:58:16.806Z,8.70
2023-05-04T09:59:19.960Z,10.80
2023-05-04T10:00:22.333Z,12.20
2023-05-04T10:02:37.084Z,9.70
2023-05-04T10:03:39.601Z,9.80
2023-05-04T10:04:41.766Z,10.70
2023-05-04T10:05:43.948Z,7.00
2023-05-04T10:06:46.418Z,11.40
2023-05-04T10:07:48.613Z,10.00
2023-05-04T10:08:51.054Z,3.20
2023-05-04T10:09:53.096Z,7.40
2023-05-04T10:10:56.462Z,11.60
2023-05-04T10:12:00.762Z,11.20
2023-05-04T10:13:03.074Z,3.60
2023-05-04T10:14:06.331Z,9.80
2023-05-04T10:15:11.069Z,8.60
2023-05-04T10:16:29.294Z,9.30
2023-05-04T10:17:42.962Z,10.80
2023-05-04T10:20:29.091Z,11.00
2023-05-04T10:22:10.029Z,11.30
2023-05-04T10:23:32.207Z,9.40
2023-05-04T10:25:02.533Z,9.50
2023-05-04T10:26:25.235Z,9.90
2023-05-04T10:29:23.871Z,10.00
2023-05-04T10:30:26.605Z,9.40
2023-05-04T10:31:41.860Z,7.40
2023-05-04T10:32:44.360Z,8.20
2023-05-04T10:33:46.879Z,8.45
2023-05-04T10:34:49.081Z,8.30
2023-05-04T10:35:54.494Z,10.40
2023-05-04T10:36:59.110Z,9.30
2023-05-04T10:38:02.187Z,9.10
2023-05-04T10:39:07.130Z,9.30
2023-05-04T10:40:12.713Z,9.00
2023-05-04T10:41:17.136Z,6.90
2023-05-04T10:42:20.010Z,9.70
2023-05-04T10:43:22.707Z,8.55
2023-05-04T10:44:26.015Z,10.64
2023-05-04T10:49:15.061Z,9.20
2023-05-04T10:50:17.819Z,8.80
2023-05-04T10:51:28.117Z,11.20
2023-05-04T10:52:28.381Z,7.50
2023-05-04T10:53:31.641Z,7.50
2023-05-04T10:54:37.570Z,9.70
2023-05-04T10:55:41.914Z,8.40
2023-05-04T10:56:44.101Z,10.40
2023-05-04T10:57:50.504Z,8.00
2023-05-04T10:58:53.520Z,10.00
2023-05-04T10:59:56.913Z,9.70
2023-05-04T11:00:59.416Z,10.10
2023-05-04T11:02:02.337Z,10.00
2023-05-04T11:03:04.731Z,7.60
2023-05-04T11:05:30.444Z,9.00
2023-05-04T11:06:32.973Z,9.50
2023-05-04T11:07:38.839Z,6.90
2023-05-04T11:08:41.167Z,8.40
2023-05-04T11:09:45.088Z,1.90
2023-05-04T11:10:48.343Z,8.80
2023-05-04T11:11:50.680Z,7.40
2023-05-04T11:12:54.643Z,8.20
2023-05-04T11:13:56.819Z,8.90
2023-05-04T11:15:09.179Z,8.70
2023-05-04T11:16:12.784Z,8.50
2023-05-04T11:18:30.785Z,8.50
2023-05-04T11:19:34.787Z,7.30
2023-05-04T11:20:37.447Z,7.90
2023-05-04T11:21:40.810Z,8.70
2023-05-04T11:22:43.484Z,8.91
2023-05-04T11:23:45.510Z,7.50
2023-05-04T11:24:47.809Z,8.70
2023-05-04T11:25:50.140Z,9.70
2023-05-04T11:26:52.446Z,8.40
2023-05-04T11:27:54.879Z,6.20
2023-05-04T11:30:08.668Z,10.00
2023-05-04T11:31:16.037Z,8.80
2023-05-04T11:32:18.211Z,8.20
2023-05-04T11:33:20.334Z,9.30
2023-05-04T11:34:22.455Z,8.90
2023-05-04T11:35:25.062Z,8.80
2023-05-04T11:36:28.098Z,9.10
2023-05-04T11:37:29.996Z,9.10
2023-05-04T11:38:32.087Z,8.50
2023-05-04T11:39:34.454Z,6.80
2023-05-04T11:40:38.228Z,9.50
2023-05-04T11:41:40.503Z,8.91
2023-05-04T11:42:42.917Z,9.30
2023-05-04T11:43:46.059Z,8.40
2023-05-04T11:44:48.429Z,7.90
2023-05-04T11:45:50.574Z,9.30
2023-05-04T11:46:53.285Z,9.30
2023-05-04T11:47:55.803Z,8.60
2023-05-04T11:48:59.035Z,8.91
2023-05-04T11:50:03.155Z,10.55
2023-05-04T11:51:05.478Z,9.10
2023-05-04T11:52:09.791Z,9.10
2023-05-04T11:53:12.515Z,9.20
2023-05-04T11:54:21.904Z,8.70
2023-05-04T11:55:26.725Z,8.90
2023-05-04T11:56:28.992Z,9.30
2023-05-04T11:57:31.228Z,8.50
2023-05-04T11:58:33.444Z,10.10
2023-05-04T11:59:35.703Z,9.40
2023-05-04T12:00:46.189Z,9.60
2023-05-04T12:01:48.546Z,8.30
2023-05-04T12:02:54.472Z,10.60
2023-05-04T12:03:57.415Z,8.40
2023-05-04T12:05:01.223Z,8.60
2023-05-04T12:06:05.777Z,8.90
2023-05-04T12:07:08.267Z,10.10
2023-05-04T12:08:10.510Z,9.60
2023-05-04T12:09:12.530Z,10.10
2023-05-04T12:11:36.123Z,10.20
2023-05-04T12:12:40.179Z,6.80
2023-05-04T12:15:00.051Z,9.20
2023-05-04T12:16:17.870Z,8.80
2023-05-04T12:17:19.926Z,7.50
2023-05-04T12:18:22.557Z,9.20
2023-05-04T12:19:24.785Z,8.36
2023-05-04T12:20:28.021Z,10.10
2023-05-04T12:21:30.384Z,9.30
2023-05-04T12:22:32.423Z,9.50
2023-05-04T12:23:34.486Z,9.40
2023-05-04T12:24:36.807Z,8.60
2023-05-04T12:25:47.390Z,10.90
2023-05-04T12:26:43.748Z,10.60
2023-05-04T12:27:45.843Z,10.20
2023-05-04T12:28:48.460Z,8.80
2023-05-04T12:29:50.798Z,9.80
2023-05-04T12:30:53.228Z,10.20
2023-05-04T12:31:55.485Z,10.80
2023-05-04T12:32:57.942Z,8.00
2023-05-04T12:34:00.503Z,9.10
2023-05-04T12:35:06.273Z,8.70
2023-05-04T12:36:10.089Z,10.50
2023-05-04T12:37:12.385Z,8.80
2023-05-04T12:38:14.508Z,9.00
2023-05-04T12:39:18.555Z,11.80
2023-05-04T12:40:28.799Z,8.50
2023-05-04T12:41:27.657Z,11.10
2023-05-04T12:42:30.779Z,11.80
2023-05-04T12:43:33.101Z,10.40
2023-05-04T12:44:35.412Z,8.20
2023-05-04T12:45:37.482Z,10.40
2023-05-04T12:46:41.518Z,8.70
2023-05-04T12:47:43.713Z,10.10
2023-05-04T12:48:46.014Z,9.50
2023-05-04T12:49:48.358Z,10.40
2023-05-04T12:50:51.687Z,9.80
2023-05-04T12:51:53.929Z,9.90
2023-05-04T12:55:32.381Z,9.00
2023-05-04T12:56:36.284Z,9.30
2023-05-04T12:57:38.377Z,8.90
2023-05-04T12:58:40.567Z,10.80
2023-05-04T12:59:42.845Z,10.40
2023-05-04T13:00:48.530Z,10.20
2023-05-04T13:01:50.856Z,10.10
2023-05-04T13:02:53.136Z,13.10
2023-05-04T13:03:56.396Z,10.30
2023-05-04T13:04:58.712Z,15.00
2023-05-04T13:06:00.950Z,12.60
2023-05-04T13:07:03.305Z,11.20
2023-05-04T13:08:05.576Z,8.10
2023-05-04T13:09:08.475Z,9.30
2023-05-04T13:10:11.756Z,9.40
2023-05-04T13:11:13.997Z,11.20
2023-05-04T13:12:15.895Z,10.00
2023-05-04T13:13:18.304Z,9.00
2023-05-04T13:14:21.018Z,9.20
2023-05-04T13:15:23.261Z,10.60
2023-05-04T13:16:26.990Z,8.70
2023-05-04T13:17:29.358Z,9.50
2023-05-04T13:18:31.419Z,8.80
2023-05-04T13:19:33.655Z,9.50
2023-05-04T13:20:36.040Z,9.70
2023-05-04T13:21:41.928Z,9.30
2023-05-04T13:22:45.855Z,9.20
2023-05-04T13:23:48.191Z,8.80
2023-05-04T13:24:50.213Z,9.00
2023-05-04T13:25:52.547Z,8.50
2023-05-04T13:26:55.505Z,9.10
2023-05-04T13:27:57.744Z,9.10
2023-05-04T13:28:59.878Z,7.10
2023-05-04T13:30:05.524Z,9.64
2023-05-04T13:31:08.005Z,8.50
2023-05-04T13:32:10.122Z,16.50
2023-05-04T13:33:27.201Z,11.00
2023-05-04T13:34:16.136Z,11.20
2023-05-04T13:35:18.342Z,9.90
2023-05-04T13:36:21.144Z,11.80
2023-05-04T13:37:23.211Z,7.00
2023-05-04T13:38:25.558Z,8.80
2023-05-04T13:39:28.102Z,8.09
2023-05-04T13:40:30.533Z,6.80
2023-05-04T13:41:33.063Z,9.50
2023-05-04T13:42:37.023Z,11.20
2023-05-04T13:43:39.305Z,6.60
2023-05-04T13:44:41.646Z,7.20
2023-05-04T13:45:44.126Z,9.30
2023-05-04T13:46:46.492Z,9.90
2023-05-04T13:47:49.059Z,10.09
2023-05-04T13:48:51.992Z,11.55
2023-05-04T13:49:54.215Z,10.90
2023-05-04T13:50:56.806Z,7.90
2023-05-04T13:51:58.889Z,10.10
2023-05-04T13:53:00.885Z,12.40
2023-05-04T13:54:03.120Z,10.50
2023-05-04T13:55:08.762Z,9.60
2023-05-04T13:56:11.278Z,9.00
2023-05-04T13:57:14.265Z,8.90
2023-05-04T13:58:16.432Z,7.50
2023-05-04T13:59:19.598Z,7.40
2023-05-04T14:00:23.727Z,7.30
2023-05-04T14:01:26.241Z,7.60
2023-05-04T14:02:29.165Z,9.27
2023-05-04T14:03:31.725Z,8.00
2023-05-04T14:04:33.684Z,7.00
2023-05-04T14:05:35.902Z,8.50
2023-05-04T14:06:38.230Z,6.70
2023-05-04T14:07:40.886Z,9.20
2023-05-04T14:08:43.056Z,7.90
2023-05-04T14:09:45.301Z,9.30
2023-05-04T14:10:47.836Z,9.30
2023-05-04T14:11:53.707Z,8.70
2023-05-04T14:12:57.151Z,7.70
2023-05-04T14:14:00.667Z,7.30
2023-05-04T14:15:08.373Z,7.70
2023-05-04T14:16:11.424Z,8.90
2023-05-04T14:17:13.913Z,9.30
2023-05-04T14:18:16.221Z,7.60
2023-05-04T14:19:18.870Z,3.40